createdAt,value
2022-11-06T00:01:32.877Z,11.52
2022-11-06T00:03:59.887Z,12.73
2022-11-06T00:06:45.218Z,18.00
2022-11-06T00:09:14.199Z,23.17
2022-11-06T00:11:41.983Z,16.50
2022-11-06T00:14:09.349Z,18.48
2022-11-06T00:16:38.890Z,15.95
2022-11-06T00:19:06.735Z,9.98
2022-11-06T00:21:34.475Z,16.42
2022-11-06T00:24:03.904Z,12.32
2022-11-06T00:26:32.144Z,10.80
2022-11-06T00:28:59.855Z,18.98
2022-11-06T00:31:29.529Z,15.18
2022-11-06T00:33:58.674Z,17.02
2022-11-06T00:36:27.396Z,21.33
2022-11-06T00:38:55.627Z,19.65
2022-11-06T00:41:23.516Z,14.00
2022-11-06T00:44:01.993Z,10.98
2022-11-06T00:46:29.634Z,19.05
2022-11-06T00:48:56.997Z,12.40
2022-11-06T00:51:26.925Z,18.05
2022-11-06T00:53:56.136Z,16.77
2022-11-06T00:56:23.789Z,11.65
2022-11-06T00:58:51.003Z,13.38
2022-11-06T01:01:31.339Z,11.68
2022-11-06T01:04:04.059Z,21.05
2022-11-06T01:06:36.534Z,11.15
2022-11-06T01:09:04.888Z,10.70
2022-11-06T01:11:59.406Z,18.17
2022-11-06T01:14:24.311Z,9.75
2022-11-06T01:16:51.676Z,10.25
2022-11-06T01:19:20.952Z,7.47
2022-11-06T01:21:49.708Z,7.45
2022-11-06T01:24:21.516Z,16.38
2022-11-06T01:27:05.320Z,14.43
2022-11-06T01:29:36.194Z,8.68
2022-11-06T01:32:03.913Z,12.38
2022-11-06T01:34:30.955Z,8.98
2022-11-06T01:36:57.794Z,11.18
2022-11-06T01:39:24.733Z,8.80
2022-11-06T01:41:53.289Z,12.88
2022-11-06T01:44:35.344Z,8.48
2022-11-06T01:47:04.719Z,7.32
2022-11-06T01:49:36.499Z,12.30
2022-11-06T01:52:07.955Z,6.97
2022-11-06T01:54:36.962Z,5.35
2022-11-06T01:57:05.357Z,11.88
2022-11-06T01:59:35.240Z,6.35
2022-11-06T02:02:02.558Z,6.32
2022-11-06T02:04:33.943Z,7.68
2022-11-06T02:07:02.148Z,7.38
2022-11-06T02:09:32.007Z,11.48
2022-11-06T02:12:18.339Z,6.55
2022-11-06T02:15:00.408Z,9.23
2022-11-06T02:17:33.039Z,13.27
2022-11-06T02:20:17.955Z,6.68
2022-11-06T02:23:03.394Z,8.45
2022-11-06T02:26:01.198Z,9.98
2022-11-06T02:28:52.392Z,11.02
2022-11-06T02:31:26.320Z,7.07
2022-11-06T02:33:59.752Z,11.95
2022-11-06T02:36:31.279Z,6.15
2022-11-06T02:39:02.152Z,10.43
2022-11-06T02:41:34.191Z,10.15
2022-11-06T02:44:02.840Z,6.90
2022-11-06T02:46:41.285Z,5.88
2022-11-06T02:49:14.439Z,5.95
2022-11-06T02:51:47.627Z,7.90
2022-11-06T02:54:16.283Z,7.15
2022-11-06T02:56:46.041Z,7.78
2022-11-06T02:59:19.159Z,8.05
2022-11-06T03:01:52.091Z,8.80
2022-11-06T03:04:27.679Z,7.88
2022-11-06T03:07:09.010Z,7.82
2022-11-06T03:09:37.144Z,10.57
2022-11-06T03:12:28.373Z,6.68
2022-11-06T03:15:06.609Z,7.60
2022-11-06T03:17:56.691Z,14.60
2022-11-06T03:20:30.336Z,5.22
2022-11-06T03:23:05.950Z,3.65
2022-11-06T03:25:51.201Z,10.40
2022-11-06T03:28:32.720Z,9.70
2022-11-06T03:31:05.437Z,4.60
2022-11-06T03:33:54.282Z,6.30
2022-11-06T03:36:40.026Z,12.13
2022-11-06T03:39:10.903Z,5.80
2022-11-06T03:41:44.223Z,9.10
2022-11-06T03:44:23.089Z,11.57
2022-11-06T03:47:07.332Z,8.90
2022-11-06T03:49:41.770Z,6.63
2022-11-06T03:52:17.355Z,2.97
2022-11-06T03:55:07.761Z,8.63
2022-11-06T03:57:42.516Z,7.38
2022-11-06T04:00:10.131Z,8.00
2022-11-06T04:02:41.510Z,7.32
2022-11-06T04:05:24.721Z,5.55
2022-11-06T04:08:15.085Z,12.05
2022-11-06T04:11:04.991Z,11.13
2022-11-06T04:13:53.651Z,5.70
2022-11-06T04:16:21.595Z,10.75
2022-11-06T04:18:48.472Z,9.68
2022-11-06T04:21:27.635Z,9.65
2022-11-06T04:25:04.001Z,10.82
2022-11-06T04:27:38.517Z,10.55
2022-11-06T04:30:15.883Z,8.80
2022-11-06T04:33:12.487Z,14.20
2022-11-06T04:35:45.390Z,11.60
2022-11-06T04:38:44.575Z,10.77
2022-11-06T04:41:18.315Z,8.32
2022-11-06T04:44:03.966Z,13.18
2022-11-06T04:46:37.319Z,4.77
2022-11-06T04:49:06.228Z,5.28
2022-11-06T04:51:39.010Z,9.65
2022-11-06T04:54:09.368Z,12.68
2022-11-06T04:56:40.107Z,9.70
2022-11-06T04:59:16.085Z,11.73
2022-11-06T05:01:43.104Z,9.30
2022-11-06T05:04:11.723Z,13.95
2022-11-06T05:06:38.657Z,6.38
2022-11-06T05:09:05.686Z,10.02
2022-11-06T05:11:32.857Z,12.57
2022-11-06T05:13:59.758Z,7.43
2022-11-06T05:16:26.812Z,10.20
2022-11-06T05:18:53.695Z,9.35
2022-11-06T05:21:39.066Z,13.77
2022-11-06T05:24:06.644Z,9.48
2022-11-06T05:26:34.323Z,6.47
2022-11-06T05:29:01.199Z,8.00
2022-11-06T05:31:28.442Z,4.47
2022-11-06T05:33:55.335Z,7.85
2022-11-06T05:36:22.223Z,6.68
2022-11-06T05:38:49.110Z,6.20
2022-11-06T05:41:16.274Z,8.52
2022-11-06T05:43:43.560Z,14.63
2022-11-06T05:46:29.663Z,13.40
2022-11-06T05:48:57.368Z,8.50
2022-11-06T05:51:24.262Z,24.80
2022-11-06T05:53:51.323Z,13.50
2022-11-06T05:56:18.219Z,16.83
2022-11-06T05:58:45.344Z,13.95
2022-11-06T06:01:13.050Z,11.23
2022-11-06T06:03:40.269Z,13.82
2022-11-06T06:06:07.219Z,15.23
2022-11-06T06:08:34.049Z,16.98
2022-11-06T06:11:01.253Z,12.63
2022-11-06T06:13:28.263Z,12.02
2022-11-06T06:15:55.198Z,26.90
2022-11-06T06:18:22.122Z,19.90
2022-11-06T06:20:49.012Z,16.30
2022-11-06T06:23:16.056Z,7.78
2022-11-06T06:25:42.991Z,18.48
2022-11-06T06:28:09.974Z,12.93
2022-11-06T06:30:36.973Z,13.13
2022-11-06T06:33:07.457Z,11.93
2022-11-06T06:35:34.923Z,12.63
2022-11-06T06:38:01.874Z,7.45
2022-11-06T06:40:29.875Z,13.52
2022-11-06T06:42:58.082Z,15.27
2022-11-06T06:45:26.303Z,15.30
2022-11-06T06:47:53.250Z,10.00
2022-11-06T06:50:20.505Z,12.15
2022-11-06T06:52:47.704Z,10.10
2022-11-06T06:55:14.664Z,11.80
2022-11-06T06:57:41.663Z,10.05
2022-11-06T07:00:09.185Z,8.40
2022-11-06T07:02:36.051Z,13.00
2022-11-06T07:05:02.992Z,13.32
2022-11-06T07:07:30.127Z,17.60
2022-11-06T07:09:57.058Z,10.10
2022-11-06T07:12:24.035Z,8.90
2022-11-06T07:14:51.210Z,13.20
2022-11-06T07:17:18.210Z,12.20
2022-11-06T07:19:45.124Z,10.25
2022-11-06T07:22:11.996Z,11.75
2022-11-06T07:24:39.713Z,15.45
2022-11-06T07:27:06.656Z,8.65
2022-11-06T07:29:34.036Z,16.90
2022-11-06T07:32:00.939Z,8.93
2022-11-06T07:34:27.907Z,5.38
2022-11-06T07:36:54.863Z,28.23
2022-11-06T07:39:21.703Z,10.13
2022-11-06T07:41:48.587Z,22.60
2022-11-06T07:44:15.542Z,20.27
2022-11-06T07:46:43.033Z,27.95
2022-11-06T07:49:10.587Z,27.65
2022-11-06T07:51:37.567Z,28.77
2022-11-06T07:54:04.597Z,16.92
2022-11-06T07:56:31.820Z,36.63
2022-11-06T07:58:58.717Z,35.90
2022-11-06T08:01:25.839Z,22.15
2022-11-06T08:03:52.800Z,20.92
2022-11-06T08:06:20.403Z,22.13
2022-11-06T08:08:47.383Z,28.15
2022-11-06T08:11:15.084Z,22.08
2022-11-06T08:13:42.059Z,26.73
2022-11-06T08:16:13.933Z,28.77
2022-11-06T08:18:41.725Z,27.90
2022-11-06T08:21:08.671Z,37.08
2022-11-06T08:23:37.344Z,31.88
2022-11-06T08:26:06.350Z,32.15
2022-11-06T08:28:33.676Z,18.15
2022-11-06T08:31:05.744Z,23.38
2022-11-06T08:33:32.973Z,23.50
2022-11-06T08:36:03.934Z,27.80
2022-11-06T08:38:30.868Z,25.42
2022-11-06T08:40:57.829Z,33.00
2022-11-06T08:43:26.702Z,25.08
2022-11-06T08:45:53.746Z,18.45
2022-11-06T08:48:20.686Z,15.07
2022-11-06T08:50:47.768Z,24.95
2022-11-06T08:53:15.141Z,19.63
2022-11-06T08:55:42.601Z,17.10
2022-11-06T08:58:09.833Z,39.67
2022-11-06T09:00:37.400Z,28.08
2022-11-06T09:03:07.490Z,19.08
2022-11-06T09:05:34.731Z,22.33
2022-11-06T09:08:02.095Z,29.48
2022-11-06T09:10:29.039Z,25.65
2022-11-06T09:12:58.740Z,25.88
2022-11-06T09:15:26.606Z,22.05
2022-11-06T09:17:54.576Z,20.02
2022-11-06T09:20:22.613Z,20.15
2022-11-06T09:22:50.006Z,19.73
2022-11-06T09:25:17.453Z,28.85
2022-11-06T09:27:48.808Z,24.42
2022-11-06T09:30:18.087Z,17.92
2022-11-06T09:32:50.018Z,18.77
2022-11-06T09:35:17.339Z,23.38
2022-11-06T09:37:44.843Z,17.60
2022-11-06T09:40:26.712Z,19.77
2022-11-06T09:43:12.267Z,25.35
2022-11-06T09:45:41.262Z,27.40
2022-11-06T09:48:12.316Z,26.88
2022-11-06T09:50:53.111Z,32.72
2022-11-06T09:53:31.164Z,28.10
2022-11-06T09:56:00.279Z,27.08
2022-11-06T09:58:38.491Z,23.65
2022-11-06T10:01:26.849Z,28.15
2022-11-06T10:04:00.424Z,20.13
2022-11-06T10:06:28.946Z,21.98
2022-11-06T10:09:07.390Z,18.90
2022-11-06T10:11:52.880Z,20.20
2022-11-06T10:14:54.850Z,20.00
2022-11-06T10:17:31.943Z,22.98
2022-11-06T10:20:11.023Z,27.27
2022-11-06T10:23:07.909Z,33.13
2022-11-06T10:25:43.557Z,21.02
2022-11-06T10:28:13.427Z,29.40
2022-11-06T10:30:55.538Z,22.15
2022-11-06T10:33:53.014Z,18.42
2022-11-06T10:36:51.053Z,24.85
2022-11-06T10:39:22.505Z,27.33
2022-11-06T10:41:54.174Z,26.58
2022-11-06T10:44:53.255Z,23.15
2022-11-06T10:47:22.625Z,21.85
2022-11-06T10:49:53.669Z,22.30
2022-11-06T10:52:46.165Z,24.75
2022-11-06T10:55:52.014Z,22.83
2022-11-06T10:58:22.396Z,21.73
2022-11-06T11:00:50.633Z,30.83
2022-11-06T11:03:33.176Z,29.88
2022-11-06T11:06:01.907Z,39.97
2022-11-06T11:08:43.692Z,36.78
2022-11-06T11:11:13.672Z,26.02
2022-11-06T11:13:45.808Z,40.10
2022-11-06T11:16:18.516Z,32.13
2022-11-06T11:18:46.320Z,28.25
2022-11-06T11:21:28.035Z,32.45
2022-11-06T11:24:00.808Z,34.55
2022-11-06T11:26:30.793Z,32.95
2022-11-06T11:29:11.442Z,27.35
2022-11-06T11:31:38.899Z,36.13
2022-11-06T11:34:15.929Z,48.85
2022-11-06T11:36:55.704Z,32.50
2022-11-06T11:39:28.231Z,26.02
2022-11-06T11:42:15.158Z,46.60
2022-11-06T11:44:42.062Z,33.63
2022-11-06T11:47:23.651Z,30.30
2022-11-06T11:49:50.710Z,49.10
2022-11-06T11:52:21.618Z,32.85
2022-11-06T11:54:53.964Z,30.40
2022-11-06T11:57:25.516Z,34.15
2022-11-06T11:59:57.700Z,35.88
2022-11-06T12:02:27.661Z,32.03
2022-11-06T12:05:21.222Z,34.03
2022-11-06T12:07:52.267Z,44.88
2022-11-06T12:10:35.692Z,42.45
2022-11-06T12:13:05.956Z,34.10
2022-11-06T12:15:55.605Z,40.63
2022-11-06T12:18:28.676Z,32.45
2022-11-06T12:21:05.309Z,48.55
2022-11-06T12:24:04.610Z,45.60
2022-11-06T12:26:48.578Z,36.45
2022-11-06T12:29:20.437Z,41.75
2022-11-06T12:31:56.125Z,39.60
2022-11-06T12:34:33.707Z,38.58
2022-11-06T12:37:40.165Z,45.95
2022-11-06T12:40:42.125Z,35.90
2022-11-06T12:43:34.435Z,30.48
2022-11-06T12:46:38.134Z,36.15
2022-11-06T12:49:36.380Z,37.15
2022-11-06T12:52:16.043Z,35.63
2022-11-06T12:54:53.104Z,38.65
2022-11-06T12:57:44.875Z,39.40
2022-11-06T13:00:21.099Z,35.65
2022-11-06T13:03:22.636Z,38.03
2022-11-06T13:06:15.352Z,29.85
2022-11-06T13:08:46.957Z,34.90
2022-11-06T13:11:33.708Z,32.75
2022-11-06T13:14:25.581Z,30.85
2022-11-06T13:17:06.094Z,29.60
2022-11-06T13:19:51.526Z,36.03
2022-11-06T13:22:25.664Z,24.80
2022-11-06T13:25:14.712Z,27.00
2022-11-06T13:27:50.674Z,33.35
2022-11-06T13:30:19.973Z,29.60
2022-11-06T13:33:02.954Z,33.28
2022-11-06T13:35:32.728Z,36.55
2022-11-06T13:38:04.634Z,27.63
2022-11-06T13:40:36.297Z,43.40
2022-11-06T13:43:25.038Z,31.00
2022-11-06T13:46:20.035Z,33.47
2022-11-06T13:49:01.632Z,25.30
2022-11-06T13:52:10.827Z,20.15
2022-11-06T13:55:02.689Z,30.35
2022-11-06T13:57:44.160Z,20.00
2022-11-06T14:00:37.013Z,24.42
2022-11-06T14:03:31.273Z,13.27
2022-11-06T14:06:30.340Z,19.38
2022-11-06T14:09:01.213Z,20.20
2022-11-06T14:11:35.720Z,19.38
2022-11-06T14:14:06.076Z,20.35
2022-11-06T14:16:38.574Z,15.23
2022-11-06T14:19:12.089Z,25.50
2022-11-06T14:21:41.826Z,20.33
2022-11-06T14:24:28.683Z,13.85
2022-11-06T14:26:56.611Z,16.48
2022-11-06T14:29:29.323Z,14.88
2022-11-06T14:32:10.468Z,19.40
2022-11-06T14:34:40.189Z,15.35
2022-11-06T14:37:19.699Z,16.08
2022-11-06T14:39:55.438Z,12.63
2022-11-06T14:42:38.362Z,19.20
2022-11-06T14:45:08.473Z,13.88
2022-11-06T14:47:54.502Z,18.10
2022-11-06T14:50:39.946Z,16.40
2022-11-06T14:53:24.111Z,16.02
2022-11-06T14:55:59.046Z,11.45
2022-11-06T14:58:31.504Z,12.20
2022-11-06T15:01:10.559Z,11.15
2022-11-06T15:03:46.562Z,9.43
2022-11-06T15:06:19.196Z,11.10
2022-11-06T15:08:49.338Z,11.50
2022-11-06T15:11:32.092Z,12.70
2022-11-06T15:14:07.744Z,19.38
2022-11-06T15:16:49.815Z,20.85
2022-11-06T15:19:25.058Z,10.07
2022-11-06T15:22:18.925Z,14.90
2022-11-06T15:24:55.873Z,14.38
2022-11-06T15:27:28.405Z,11.98
2022-11-06T15:30:00.393Z,14.07
2022-11-06T15:32:31.396Z,12.18
2022-11-06T15:35:13.841Z,17.35
2022-11-06T15:37:48.814Z,13.48
2022-11-06T15:40:28.987Z,11.10
2022-11-06T15:42:57.943Z,12.07
2022-11-06T15:45:27.667Z,20.77
2022-11-06T15:48:04.218Z,17.73
2022-11-06T15:50:35.960Z,14.55
2022-11-06T15:53:30.224Z,18.85
2022-11-06T15:56:01.825Z,14.27
2022-11-06T15:58:36.936Z,14.80
2022-11-06T16:01:05.973Z,10.35
2022-11-06T16:03:53.487Z,12.32
2022-11-06T16:06:20.913Z,11.38
2022-11-06T16:08:50.372Z,11.68
2022-11-06T16:11:20.505Z,13.35
2022-11-06T16:13:48.236Z,6.93
2022-11-06T16:16:41.867Z,9.90
2022-11-06T16:19:31.244Z,7.38
2022-11-06T16:22:03.458Z,11.25
2022-11-06T16:24:46.119Z,11.48
2022-11-06T16:27:14.179Z,11.65
2022-11-06T16:29:48.409Z,7.43
2022-11-06T16:32:20.989Z,14.48
2022-11-06T16:34:49.316Z,11.98
2022-11-06T16:37:16.116Z,9.05
2022-11-06T16:39:53.617Z,14.73
2022-11-06T16:42:26.959Z,9.65
2022-11-06T16:45:19.998Z,11.38
2022-11-06T16:48:16.155Z,10.77
2022-11-06T16:50:49.748Z,17.87
2022-11-06T16:53:25.032Z,10.10
2022-11-06T16:56:05.490Z,10.10
2022-11-06T16:58:35.903Z,6.78
2022-11-06T17:01:05.793Z,12.25
2022-11-06T17:03:55.232Z,10.48
2022-11-06T17:06:34.073Z,13.07
2022-11-06T17:09:23.365Z,14.63
2022-11-06T17:11:58.769Z,10.57
2022-11-06T17:14:26.130Z,6.78
2022-11-06T17:16:57.768Z,12.90
2022-11-06T17:19:26.071Z,14.63
2022-11-06T17:21:53.506Z,14.82
2022-11-06T17:24:37.285Z,11.05
2022-11-06T17:27:05.372Z,17.52
2022-11-06T17:29:34.007Z,10.07
2022-11-06T17:32:00.829Z,12.05
2022-11-06T17:34:27.703Z,10.63
2022-11-06T17:36:54.671Z,8.05
2022-11-06T17:39:22.603Z,13.35
2022-11-06T17:41:49.523Z,14.82
2022-11-06T17:44:17.420Z,17.52
2022-11-06T17:46:46.737Z,13.73
2022-11-06T17:49:17.982Z,11.63
2022-11-06T17:52:00.475Z,14.45
2022-11-06T17:54:32.915Z,11.98
2022-11-06T17:57:02.410Z,9.27
2022-11-06T17:59:29.250Z,17.73
2022-11-06T18:01:56.357Z,11.10
2022-11-06T18:04:25.334Z,13.15
2022-11-06T18:06:53.311Z,12.07
2022-11-06T18:09:21.491Z,11.20
2022-11-06T18:11:52.414Z,14.27
2022-11-06T18:14:20.854Z,15.57
2022-11-06T18:16:48.256Z,7.75
2022-11-06T18:19:17.253Z,8.32
2022-11-06T18:21:44.165Z,8.70
2022-11-06T18:24:11.149Z,11.10
2022-11-06T18:26:37.993Z,8.60
2022-11-06T18:29:06.399Z,9.90
2022-11-06T18:31:34.156Z,14.15
2022-11-06T18:34:01.117Z,17.63
2022-11-06T18:36:27.958Z,13.98
2022-11-06T18:38:55.096Z,18.75
2022-11-06T18:41:22.530Z,13.63
2022-11-06T18:43:49.974Z,13.82
2022-11-06T18:46:18.933Z,13.82
2022-11-06T18:48:46.266Z,13.25
2022-11-06T18:51:33.461Z,9.05
2022-11-06T18:54:04.619Z,10.65
2022-11-06T18:56:32.178Z,12.43
2022-11-06T18:59:00.093Z,9.40
2022-11-06T19:01:27.982Z,8.13
2022-11-06T19:03:55.098Z,10.90
2022-11-06T19:06:22.274Z,22.77
2022-11-06T19:08:49.350Z,21.27
2022-11-06T19:11:18.100Z,13.50
2022-11-06T19:13:48.210Z,13.68
2022-11-06T19:16:18.615Z,18.48
2022-11-06T19:18:45.763Z,13.95
2022-11-06T19:21:13.427Z,11.77
2022-11-06T19:23:43.224Z,17.75
2022-11-06T19:29:00.671Z,18.63
2022-11-06T19:31:29.175Z,12.48
2022-11-06T19:33:57.588Z,20.30
2022-11-06T19:36:25.378Z,16.27
2022-11-06T19:38:53.223Z,9.27
2022-11-06T19:41:20.708Z,15.95
2022-11-06T19:43:47.607Z,15.23
2022-11-06T19:46:18.248Z,12.40
2022-11-06T19:48:48.553Z,13.98
2022-11-06T19:51:16.923Z,13.27
2022-11-06T19:53:43.916Z,10.82
2022-11-06T19:56:16.763Z,11.35
2022-11-06T19:58:43.820Z,11.70
2022-11-06T20:01:15.816Z,7.50
2022-11-06T20:03:43.065Z,13.48
2022-11-06T20:06:10.715Z,12.38
2022-11-06T20:08:38.946Z,11.32
2022-11-06T20:11:07.895Z,10.40
2022-11-06T20:13:39.095Z,10.57
2022-11-06T20:16:09.593Z,8.48
2022-11-06T20:18:36.839Z,11.32
2022-11-06T20:21:10.036Z,18.50
2022-11-06T20:23:37.735Z,14.57
2022-11-06T20:26:06.657Z,13.35
2022-11-06T20:28:34.078Z,10.65
2022-11-06T20:31:08.316Z,12.40
2022-11-06T20:33:36.207Z,8.73
2022-11-06T20:36:10.438Z,7.05
2022-11-06T20:38:37.344Z,12.00
2022-11-06T20:41:04.386Z,10.30
2022-11-06T20:43:31.583Z,8.18
2022-11-06T20:46:02.982Z,18.23
2022-11-06T20:48:31.608Z,12.55
2022-11-06T20:51:11.590Z,6.32
2022-11-06T20:53:39.359Z,19.83
2022-11-06T20:56:09.005Z,11.43
2022-11-06T20:58:36.497Z,6.55
2022-11-06T21:01:16.762Z,14.13
2022-11-06T21:03:44.869Z,11.95
2022-11-06T21:06:11.844Z,8.43
2022-11-06T21:08:41.248Z,8.02
2022-11-06T21:11:13.674Z,11.15
2022-11-06T21:13:41.485Z,8.38
2022-11-06T21:16:14.639Z,6.93
2022-11-06T21:18:54.428Z,15.65
2022-11-06T21:21:24.727Z,14.93
2022-11-06T21:23:53.320Z,10.32
2022-11-06T21:26:25.649Z,13.95
2022-11-06T21:28:52.839Z,14.43
2022-11-06T21:31:23.083Z,12.48
2022-11-06T21:33:51.742Z,20.30
2022-11-06T21:36:23.046Z,7.90
2022-11-06T21:38:49.972Z,17.13
2022-11-06T21:41:19.652Z,6.38
2022-11-06T21:43:54.098Z,13.80
2022-11-06T21:46:22.198Z,11.32
2022-11-06T21:48:50.311Z,8.30
2022-11-06T21:51:26.896Z,14.68
2022-11-06T21:54:14.538Z,17.58
2022-11-06T21:56:42.726Z,12.05
2022-11-06T21:59:12.373Z,11.10
2022-11-06T22:01:40.740Z,12.57
2022-11-06T22:04:08.631Z,11.70
2022-11-06T22:06:35.983Z,10.50
2022-11-06T22:09:04.297Z,16.05
2022-11-06T22:11:36.552Z,16.08
2022-11-06T22:14:07.366Z,13.05
2022-11-06T22:16:36.875Z,10.35
2022-11-06T22:19:06.865Z,10.85
2022-11-06T22:21:34.207Z,6.75
2022-11-06T22:24:01.206Z,9.32
2022-11-06T22:26:31.333Z,5.03
2022-11-06T22:29:00.790Z,13.02
2022-11-06T22:31:28.881Z,9.82
2022-11-06T22:33:56.827Z,13.23
2022-11-06T22:36:25.557Z,11.07
2022-11-06T22:38:53.499Z,13.27
2022-11-06T22:41:23.697Z,13.35
2022-11-06T22:43:51.045Z,9.88
2022-11-06T22:46:22.276Z,13.13
2022-11-06T22:48:50.360Z,8.82
2022-11-06T22:51:20.012Z,13.27
2022-11-06T22:53:47.339Z,10.65
2022-11-06T22:56:14.562Z,12.07
2022-11-06T22:58:41.977Z,5.43
2022-11-06T23:01:10.584Z,7.97
2022-11-06T23:03:38.273Z,10.75
2022-11-06T23:06:07.691Z,12.45
2022-11-06T23:08:36.748Z,8.70
2022-11-06T23:11:12.622Z,9.48
2022-11-06T23:13:40.410Z,9.00
2022-11-06T23:16:17.848Z,12.50
2022-11-06T23:18:45.553Z,10.38
2022-11-06T23:21:18.120Z,8.15
2022-11-06T23:23:45.917Z,12.60
2022-11-06T23:26:17.140Z,6.95
2022-11-06T23:28:45.285Z,11.63
2022-11-06T23:31:14.726Z,9.75
2022-11-06T23:33:42.536Z,18.00
2022-11-06T23:36:12.008Z,13.07
2022-11-06T23:38:39.013Z,7.60
2022-11-06T23:41:29.967Z,9.00
2022-11-06T23:43:57.437Z,11.40
2022-11-06T23:46:32.786Z,7.88
2022-11-06T23:49:00.301Z,9.85
2022-11-06T23:51:28.081Z,9.65
2022-11-06T23:53:55.310Z,6.65
2022-11-06T23:56:22.400Z,8.10
2022-11-06T23:58:49.332Z,6.88
